Kezdőlap
METAR-TAF:

METAR-TAF

Repülőterek :

Pardubice, Csehország

földrajzi szélesség: 50-00-48N, földrajzi hosszúság: 15-44-19E, magasság: 226 m

Jelenlegi meteorológiai megfigyelések

A jelentés 40 perccel ezelõtt készült, 00:00 UTC
Keleti szél 8 kt
Hőmérséklet 1°C
Páratartalom 69%
Légköri nyomás 1018 hPa
Látótávolság 10 km, vagy több
Szórványos felhőzet 3300 lábon
Borult 4400 lábon

METAR: LKPD 200000Z 08008KT 9999 SCT033 OVC044 01/M04 Q1018 RMK BLACK

Idő: 01:40 (00:40 UTC)


TAF: hiányzik

Meteorológiai megfigyelések és előrejelzések több, mint 4000 repülőtéren (METAR és TAF jelentéseket).

A térképen piros és sárga pontok jelzik az elérhető meteorológiai állomásokat.

Mozgassa az egeret a pont fölött, hogy megjelenjen az állomás neve.

Azután kattintson az időjárási megfigyelések és előrejelzések megtekintéséhez.

A térkép megváltoztatása: kattintson a fekete keresztel jelölt zöld gombra ráközelítéshez, a vonallal jelölt zöld gombra távolításhoz, vagy a zöld nyilakra a szomszédos térképek eléréséhez.


METAR-TAF: